Time;durP1;ratioP1;P1;durP2;ratioP2;P2;SDS_P1;SDS_P2;PMS_P1;PMS_P2;Temp;Humidity;BMP_temperature;BMP_pressure;BME280_temperature;BME280_humidity;BME280_pressure;Samples;Min_cycle;Max_cycle;Signal;HPM_P1;HPM_P2
2023/06/03 00:00:29;;;;;;;5.97;2.80;;;;;;;10.69;39.61;95818.31;4925627;29;20103;-79
2023/06/03 00:02:56;;;;;;;7.78;3.00;;;;;;;10.46;40.59;95819.06;4930649;29;20044;-79
2023/06/03 00:05:22;;;;;;;4.82;2.53;;;;;;;10.46;40.49;95811.06;4925329;29;20503;-79
2023/06/03 00:07:47;;;;;;;6.47;3.05;;;;;;;10.34;41.10;95818.63;4916517;29;20739;-79
2023/06/03 00:10:13;;;;;;;7.22;2.83;;;;;;;10.52;40.32;95814.88;4912924;29;20790;-79
2023/06/03 00:12:39;;;;;;;10.57;3.30;;;;;;;10.56;39.85;95814.38;4917496;29;20122;-79
2023/06/03 00:15:05;;;;;;;6.60;3.13;;;;;;;10.42;40.46;95813.25;4924579;29;20055;-79
2023/06/03 00:17:31;;;;;;;8.20;2.97;;;;;;;10.55;39.88;95810.06;4919181;29;20388;-79
2023/06/03 00:19:57;;;;;;;5.65;2.83;;;;;;;10.43;40.54;95817.59;4918183;29;20055;-79
2023/06/03 00:22:23;;;;;;;8.40;2.95;;;;;;;10.55;39.99;95815.38;4914310;29;20474;-79
2023/06/03 00:24:48;;;;;;;6.90;2.92;;;;;;;10.60;39.81;95817.50;4918449;29;20078;-79
2023/06/03 00:27:14;;;;;;;4.65;2.78;;;;;;;10.57;39.62;95809.88;4934232;29;20042;-79
2023/06/03 00:29:40;;;;;;;5.50;2.72;;;;;;;10.53;39.89;95809.38;4918389;29;20107;-79
2023/06/03 00:32:05;;;;;;;6.20;2.72;;;;;;;10.51;39.51;95808.75;4924922;29;20047;-79
2023/06/03 00:34:31;;;;;;;8.07;2.95;;;;;;;10.39;40.10;95807.44;4914719;29;20150;-79
2023/06/03 00:36:56;;;;;;;10.93;3.05;;;;;;;10.37;40.10;95810.28;4924840;29;20102;-79
2023/06/03 00:39:22;;;;;;;9.35;2.65;;;;;;;10.42;39.67;95809.75;4925126;29;20031;-79
2023/06/03 00:41:47;;;;;;;6.75;2.70;;;;;;;10.39;39.78;95815.44;4925016;29;20034;-79
2023/06/03 00:44:13;;;;;;;8.90;2.90;;;;;;;10.34;40.03;95811.44;4924202;29;20035;-79
2023/06/03 00:46:38;;;;;;;7.22;3.17;;;;;;;10.18;40.43;95807.03;4930804;29;20028;-79
2023/06/03 00:49:04;;;;;;;8.60;2.97;;;;;;;10.30;40.37;95812.78;4924841;29;20411;-79
2023/06/03 00:51:33;;;;;;;8.80;3.17;;;;;;;10.17;40.39;95817.84;4924333;29;20039;-78
2023/06/03 00:53:58;;;;;;;8.45;2.83;;;;;;;10.19;40.07;95806.03;4925860;29;20024;-79
2023/06/03 00:56:25;;;;;;;8.45;3.13;;;;;;;10.19;40.32;95816.66;4914729;29;20082;-79
2023/06/03 00:58:50;;;;;;;6.10;3.15;;;;;;;10.25;39.57;95811.66;4919386;29;20028;-79
2023/06/03 01:01:16;;;;;;;8.65;2.78;;;;;;;10.16;40.05;95806.34;4924807;29;20106;-79
2023/06/03 01:03:42;;;;;;;8.32;2.80;;;;;;;10.21;39.79;95801.34;4923826;29;20424;-79
2023/06/03 01:06:45;;;;;;;7.10;2.78;;;;;;;10.09;39.90;95806.22;4924971;29;20043;-79
2023/06/03 01:09:44;;;;;;;4.28;2.33;;;;;;;10.00;39.82;95801.06;4911858;29;20064;-79
2023/06/03 01:12:19;;;;;;;5.47;2.47;;;;;;;10.13;39.34;95808.53;4911870;29;20043;-79
2023/06/03 01:14:54;;;;;;;8.20;2.60;;;;;;;10.09;39.43;95800.06;4931992;29;20150;-79
2023/06/03 01:17:20;;;;;;;6.28;2.50;;;;;;;10.01;39.59;95800.88;4909332;29;20368;-79
2023/06/03 01:19:49;;;;;;;6.38;2.40;;;;;;;10.01;38.96;95800.03;4924390;29;20534;-79
2023/06/03 01:22:20;;;;;;;3.90;2.65;;;;;;;10.01;38.59;95797.38;4924985;29;20667;-79
2023/06/03 01:24:46;;;;;;;4.22;2.40;;;;;;;10.05;38.79;95794.25;4934485;29;20051;-79
2023/06/03 01:27:12;;;;;;;7.95;2.40;;;;;;;10.03;38.70;95790.88;4923609;29;20407;-79
2023/06/03 01:29:38;;;;;;;10.95;2.53;;;;;;;9.94;38.53;95787.44;4928288;29;20040;-79
2023/06/03 01:32:04;;;;;;;4.55;2.45;;;;;;;9.85;38.85;95789.28;4916508;29;20031;-79
2023/06/03 01:34:30;;;;;;;3.90;2.40;;;;;;;9.94;38.00;95790.09;4912465;29;20078;-79
2023/06/03 01:36:55;;;;;;;6.57;2.72;;;;;;;9.86;37.85;95790.09;4916557;29;20556;-79
2023/06/03 01:39:21;;;;;;;3.88;2.33;;;;;;;9.90;37.65;95790.59;4895232;29;20501;-79
2023/06/03 01:41:46;;;;;;;3.97;2.30;;;;;;;9.71;38.44;95797.94;4898202;29;20099;-79
2023/06/03 01:44:11;;;;;;;3.78;2.40;;;;;;;9.68;38.22;95790.28;4902744;29;20399;-79
2023/06/03 01:46:37;;;;;;;2.90;2.05;;;;;;;9.68;38.25;95795.59;4918284;29;20031;-79
2023/06/03 01:49:02;;;;;;;4.70;2.40;;;;;;;9.65;38.11;95788.81;4927568;29;20047;-79
2023/06/03 01:51:28;;;;;;;5.32;2.50;;;;;;;9.53;37.91;95795.47;4916792;29;20090;-78
2023/06/03 01:53:53;;;;;;;6.03;2.50;;;;;;;9.58;37.77;95793.13;4928430;29;20028;-79
2023/06/03 01:56:19;;;;;;;3.80;2.30;;;;;;;9.66;37.13;95792.31;4927786;29;20336;-78
2023/06/03 01:58:45;;;;;;;4.15;2.58;;;;;;;9.51;37.14;95782.34;4915280;29;20097;-79
2023/06/03 02:01:10;;;;;;;8.77;2.35;;;;;;;9.46;37.58;95790.81;4916556;29;20040;-79
2023/06/03 02:03:36;;;;;;;8.82;2.30;;;;;;;9.44;37.48;95778.69;4927785;29;20046;-78
2023/06/03 02:06:01;;;;;;;4.90;2.20;;;;;;;9.30;38.22;95783.69;4927603;29;20270;-79
2023/06/03 02:08:26;;;;;;;8.05;2.30;;;;;;;9.36;37.35;95784.84;4929404;29;20438;-79
2023/06/03 02:10:52;;;;;;;6.13;2.22;;;;;;;9.28;37.59;95787.50;4927343;29;20023;-79
2023/06/03 02:13:17;;;;;;;4.78;2.13;;;;;;;9.55;36.65;95782.81;4926627;29;20039;-79
2023/06/03 02:15:43;;;;;;;5.65;2.40;;;;;;;9.44;37.07;95781.34;4927128;29;20047;-79
2023/06/03 02:18:09;;;;;;;8.25;2.63;;;;;;;9.25;37.71;95767.38;4897271;29;20051;-79
2023/06/03 02:20:35;;;;;;;2.95;2.08;;;;;;;9.27;37.89;95781.34;4927262;29;20039;-79
2023/06/03 02:23:03;;;;;;;5.68;2.40;;;;;;;9.38;36.61;95771.41;4927568;29;20028;-79
2023/06/03 02:25:29;;;;;;;6.53;2.47;;;;;;;9.25;37.48;95767.38;4927272;29;20032;-79
2023/06/03 02:27:55;;;;;;;5.35;2.00;;;;;;;8.95;37.82;95769.72;4927133;29;20035;-79
2023/06/03 02:30:21;;;;;;;4.45;2.40;;;;;;;8.93;37.36;95766.34;4914588;29;20250;-79
2023/06/03 02:32:47;;;;;;;3.83;2.03;;;;;;;9.02;36.66;95765.41;4897674;29;20051;-79
2023/06/03 02:35:12;;;;;;;3.63;1.95;;;;;;;9.05;37.00;95765.06;4917569;29;20615;-79
2023/06/03 02:37:38;;;;;;;5.72;2.00;;;;;;;9.00;36.78;95769.19;4900852;29;20040;-79
2023/06/03 02:40:05;;;;;;;2.95;2.10;;;;;;;9.02;36.25;95765.41;4926874;29;20032;-79
2023/06/03 02:42:30;;;;;;;3.08;1.98;;;;;;;8.97;36.58;95770.38;4926699;29;20055;-79
2023/06/03 02:44:56;;;;;;;6.03;2.08;;;;;;;9.02;36.38;95772.53;4926227;29;20032;-79
2023/06/03 02:47:21;;;;;;;5.88;2.17;;;;;;;8.88;36.72;95779.28;4926320;29;20358;-79
2023/06/03 02:49:47;;;;;;;3.78;1.90;;;;;;;8.86;36.60;95783.91;4926348;29;20032;-79
2023/06/03 02:52:12;;;;;;;4.45;2.03;;;;;;;8.75;36.82;95780.59;4914654;29;20095;-79
2023/06/03 02:54:37;;;;;;;6.32;1.98;;;;;;;8.64;37.42;95775.59;4917135;29;20027;-79
2023/06/03 02:57:03;;;;;;;3.33;1.98;;;;;;;8.85;35.68;95788.41;4925824;29;20043;-79
2023/06/03 02:59:28;;;;;;;2.45;1.85;;;;;;;8.75;36.74;95785.91;4925604;29;20383;-79
2023/06/03 03:01:54;;;;;;;4.95;2.10;;;;;;;8.82;35.92;95778.97;4925175;29;20525;-79
2023/06/03 03:04:20;;;;;;;4.07;1.83;;;;;;;8.54;37.66;95781.84;4925127;29;20059;-79
2023/06/03 03:06:49;;;;;;;2.40;1.67;;;;;;;8.51;36.69;95784.84;4926300;29;20121;-79
2023/06/03 03:09:14;;;;;;;;;;;;;;;8.62;36.09;95793.50;4911887;29;20048;-78
2023/06/03 03:11:39;;;;;;;3.97;2.00;;;;;;;8.73;35.85;95792.34;4925190;29;20440;-79
2023/06/03 03:14:05;;;;;;;4.25;1.92;;;;;;;8.68;35.14;95798.16;4925858;29;20028;-79
2023/06/03 03:16:31;;;;;;;2.40;1.95;;;;;;;8.61;37.76;95784.72;4911662;29;20089;-79
2023/06/03 03:18:57;;;;;;;6.40;1.80;;;;;;;8.74;35.15;95802.00;4925610;29;20043;-79
2023/06/03 03:21:22;;;;;;;3.17;1.52;;;;;;;8.66;35.06;95794.81;4924942;29;20048;-79
2023/06/03 03:23:47;;;;;;;2.88;1.77;;;;;;;8.56;36.05;95797.63;4925130;29;20039;-79
2023/06/03 03:26:13;;;;;;;3.53;1.63;;;;;;;8.55;35.83;95802.13;4925951;29;20053;-79
2023/06/03 03:28:39;;;;;;;1.88;1.70;;;;;;;8.64;35.60;95796.81;4925096;29;20061;-79
2023/06/03 03:31:04;;;;;;;5.50;2.00;;;;;;;8.46;35.88;95802.25;4918865;29;20577;-79
2023/06/03 03:33:30;;;;;;;3.83;1.70;;;;;;;8.61;36.31;95802.44;4914969;29;20126;-79
2023/06/03 03:35:58;;;;;;;3.35;1.88;;;;;;;8.61;34.79;95799.78;4930075;29;20036;-79
2023/06/03 03:38:23;;;;;;;3.88;1.83;;;;;;;8.53;35.03;95800.59;4935144;29;20031;-79
2023/06/03 03:40:49;;;;;;;8.70;1.92;;;;;;;8.65;35.32;95801.13;4924375;29;20254;-79
2023/06/03 03:43:20;;;;;;;4.15;2.05;;;;;;;8.64;34.78;95804.78;4924147;29;20304;-78
2023/06/03 03:45:45;;;;;;;3.75;1.80;;;;;;;8.29;35.09;95810.09;4926343;29;20571;-79
2023/06/03 03:48:15;;;;;;;4.00;1.60;;;;;;;8.52;35.06;95809.53;4924339;29;20064;-79
2023/06/03 03:50:48;;;;;;;3.58;1.70;;;;;;;8.74;33.95;95802.81;4893907;29;20332;-79
2023/06/03 03:53:17;;;;;;;4.28;1.73;;;;;;;8.70;34.29;95804.13;4925213;29;20059;-79
2023/06/03 03:55:44;;;;;;;1.88;1.70;;;;;;;8.80;34.08;95804.81;4928228;29;20130;-79
2023/06/03 03:58:35;;;;;;;4.20;1.90;;;;;;;8.81;34.41;95810.97;4914051;29;20473;-79
2023/06/03 04:01:01;;;;;;;3.85;1.80;;;;;;;8.88;34.59;95803.19;4915018;29;20054;-79
2023/06/03 04:03:27;;;;;;;2.63;1.40;;;;;;;8.92;33.85;95815.97;4913070;29;20088;-78
2023/06/03 04:05:53;;;;;;;2.53;1.65;;;;;;;8.99;34.22;95818.00;4899517;29;20497;-79
2023/06/03 04:08:43;;;;;;;5.20;1.70;;;;;;;8.78;33.53;95816.59;4916602;29;20035;-79
2023/06/03 04:11:11;;;;;;;4.22;1.50;;;;;;;8.92;35.14;95823.09;4911400;29;21052;-79
2023/06/03 04:13:38;;;;;;;4.25;1.60;;;;;;;9.05;33.59;95818.16;4935095;29;20494;-79
2023/06/03 04:16:08;;;;;;;2.75;1.58;;;;;;;9.18;33.16;95824.84;4911966;29;20047;-79
2023/06/03 04:18:37;;;;;;;3.83;1.70;;;;;;;9.13;32.85;95817.38;4913966;29;20058;-79
2023/06/03 04:21:02;;;;;;;3.45;1.45;;;;;;;9.18;32.87;95815.03;4916225;29;20126;-79
2023/06/03 04:23:28;;;;;;;3.00;1.60;;;;;;;9.14;36.46;95820.84;4926212;29;20114;-79
2023/06/03 04:25:55;;;;;;;3.22;1.63;;;;;;;9.16;34.50;95819.72;4921305;29;20035;-79
2023/06/03 04:28:20;;;;;;;2.83;1.55;;;;;;;9.12;33.05;95813.06;4924704;29;20087;-79
2023/06/03 04:30:45;;;;;;;5.97;1.60;;;;;;;9.30;32.41;95812.91;4931106;29;20032;-80
2023/06/03 04:33:11;;;;;;;5.00;1.63;;;;;;;9.35;32.65;95823.03;4924569;29;20665;-80
2023/06/03 04:35:36;;;;;;;2.65;1.35;;;;;;;9.55;32.81;95825.34;4924414;29;20051;-79
2023/06/03 04:38:02;;;;;;;3.53;1.70;;;;;;;9.60;33.14;95828.38;4924488;29;20360;-80
2023/06/03 04:40:27;;;;;;;3.97;1.88;;;;;;;9.64;31.91;95818.22;4923496;29;20043;-79
2023/06/03 04:42:53;;;;;;;2.97;1.63;;;;;;;9.68;31.99;95812.41;4909514;29;20451;-80
2023/06/03 04:45:23;;;;;;;3.03;1.42;;;;;;;9.57;32.13;95826.88;4913382;29;20040;-80
2023/06/03 04:47:52;;;;;;;5.18;1.80;;;;;;;9.67;32.62;95817.88;4923861;29;20114;-79
2023/06/03 04:50:20;;;;;;;5.72;1.63;;;;;;;9.95;31.42;95817.50;4923399;29;20042;-79
2023/06/03 04:52:47;;;;;;;2.67;1.65;;;;;;;9.97;32.95;95818.19;4909010;29;20130;-80
2023/06/03 04:55:12;;;;;;;3.88;1.58;;;;;;;10.10;31.59;95812.38;4908303;29;20070;-80
2023/06/03 04:57:38;;;;;;;4.15;1.40;;;;;;;10.05;31.24;95812.00;4930929;29;20028;-82
2023/06/03 05:00:06;;;;;;;4.15;1.70;;;;;;;9.98;31.74;95809.19;4912592;29;20039;-81
2023/06/03 05:02:32;;;;;;;4.28;1.60;;;;;;;10.17;31.44;95807.19;4913226;29;20100;-81
2023/06/03 05:04:57;;;;;;;2.38;1.63;;;;;;;10.33;32.68;95806.28;4927567;29;20061;-79
2023/06/03 05:07:24;;;;;;;2.42;1.55;;;;;;;10.32;31.54;95821.44;4915624;29;20028;-78
2023/06/03 05:09:50;;;;;;;2.70;1.50;;;;;;;10.42;30.64;95804.44;4917615;29;20048;-79
2023/06/03 05:12:18;;;;;;;3.53;1.60;;;;;;;10.49;31.20;95810.75;4927461;29;20036;-78
2023/06/03 05:14:44;;;;;;;3.33;1.50;;;;;;;10.57;30.04;95809.88;4926812;29;20266;-79
2023/06/03 05:17:09;;;;;;;2.53;1.40;;;;;;;10.60;31.02;95810.34;4898475;29;20130;-78
2023/06/03 05:19:35;;;;;;;5.93;1.98;;;;;;;10.52;30.38;95815.72;4927359;29;20020;-78
2023/06/03 05:22:03;;;;;;;4.15;1.58;;;;;;;10.64;32.21;95810.81;4930120;29;20403;-78
2023/06/03 05:24:28;;;;;;;2.97;1.40;;;;;;;10.84;30.63;95813.91;4926462;29;20047;-78
2023/06/03 05:26:54;;;;;;;2.40;1.60;;;;;;;10.93;32.52;95821.84;4911889;29;20057;-78
2023/06/03 05:29:19;;;;;;;2.72;1.30;;;;;;;11.09;29.33;95820.97;4926706;29;20429;-78
2023/06/03 05:31:44;;;;;;;4.47;1.48;;;;;;;11.15;31.19;95830.91;4926181;29;20491;-78
2023/06/03 05:34:10;;;;;;;3.55;1.33;;;;;;;11.13;29.95;95820.41;4915897;29;20086;-78
2023/06/03 05:36:36;;;;;;;3.28;1.50;;;;;;;11.12;29.34;95826.75;4926505;29;20028;-79
2023/06/03 05:39:01;;;;;;;2.42;1.40;;;;;;;11.48;29.02;95821.84;4915123;29;20019;-79
2023/06/03 05:41:29;;;;;;;1.85;1.40;;;;;;;11.35;29.27;95825.94;4926677;29;20040;-79
2023/06/03 05:43:54;;;;;;;4.93;1.55;;;;;;;11.63;28.47;95827.25;4925340;29;20158;-79
2023/06/03 05:46:19;;;;;;;5.13;1.60;;;;;;;11.67;28.64;95825.03;4926737;29;20445;-79
2023/06/03 05:48:45;;;;;;;2.55;1.48;;;;;;;11.76;28.73;95824.78;4926579;29;20323;-79
2023/06/03 05:51:11;;;;;;;5.72;1.50;;;;;;;11.70;28.19;95828.16;4914025;29;20040;-79
2023/06/03 05:53:38;;;;;;;3.72;1.40;;;;;;;11.83;28.87;95827.53;4926202;29;20039;-79
2023/06/03 05:56:03;;;;;;;4.68;1.48;;;;;;;11.98;28.94;95830.25;4917969;29;20047;-79
2023/06/03 05:58:29;;;;;;;4.15;1.52;;;;;;;12.06;27.79;95826.69;4926830;29;20110;-79
2023/06/03 06:00:54;;;;;;;1.85;1.20;;;;;;;12.22;30.20;95828.38;4925969;29;20039;-80
2023/06/03 06:03:20;;;;;;;3.15;1.40;;;;;;;12.20;28.06;95818.91;4928381;29;20035;-79
2023/06/03 06:05:45;;;;;;;2.42;1.58;;;;;;;12.53;27.31;95821.19;4925598;29;20043;-79
2023/06/03 06:08:11;;;;;;;4.43;1.52;;;;;;;12.57;27.72;95821.66;4915681;29;20090;-79
2023/06/03 06:10:36;;;;;;;4.07;1.48;;;;;;;12.79;28.61;95814.53;4925599;29;20471;-79
2023/06/03 06:13:01;;;;;;;2.47;1.40;;;;;;;12.86;28.65;95815.44;4925858;29;20035;-80
2023/06/03 06:15:30;;;;;;;3.15;1.50;;;;;;;13.06;27.42;95817.53;4925303;29;20109;-79
2023/06/03 06:17:55;;;;;;;2.80;1.45;;;;;;;13.16;27.50;95826.06;4911964;29;20273;-79
2023/06/03 06:20:21;;;;;;;2.55;1.30;;;;;;;13.18;27.17;95826.72;4904756;29;20585;-79
2023/06/03 06:22:49;;;;;;;2.42;1.30;;;;;;;13.25;26.61;95821.41;4918376;29;20555;-79
2023/06/03 06:25:15;;;;;;;2.40;1.50;;;;;;;13.28;26.82;95822.88;4925534;29;20042;-79
2023/06/03 06:27:40;;;;;;;4.38;1.38;;;;;;;13.35;27.15;95823.78;4913964;29;20031;-79
2023/06/03 06:30:06;;;;;;;3.78;1.70;;;;;;;13.51;27.19;95830.72;4914930;29;20159;-79
2023/06/03 06:32:32;;;;;;;3.10;1.50;;;;;;;13.60;27.31;95825.25;4925391;29;20043;-79
2023/06/03 06:34:57;;;;;;;3.13;1.67;;;;;;;13.99;26.27;95828.47;4916715;29;20027;-80
2023/06/03 06:37:23;;;;;;;6.03;1.70;;;;;;;14.00;25.92;95825.59;4911769;29;20095;-80
2023/06/03 06:39:49;;;;;;;2.67;1.42;;;;;;;13.65;27.72;95831.69;4925352;29;20043;-79
2023/06/03 06:42:28;;;;;;;2.47;1.40;;;;;;;14.00;26.57;95828.28;4920525;29;20039;-80
2023/06/03 06:44:53;;;;;;;2.58;1.40;;;;;;;14.19;27.02;95834.81;4897668;29;20044;-79
2023/06/03 06:47:27;;;;;;;4.00;1.55;;;;;;;14.51;25.64;95842.38;4920561;29;20058;-79
2023/06/03 06:49:56;;;;;;;1.85;1.40;;;;;;;14.54;26.10;95830.44;4919910;29;20054;-79
2023/06/03 06:52:23;;;;;;;2.85;1.30;;;;;;;14.53;26.40;95836.84;4912782;29;20043;-79
2023/06/03 06:54:48;;;;;;;3.30;1.50;;;;;;;13.99;26.50;95836.50;4925414;29;20492;-79
2023/06/03 06:57:19;;;;;;;4.95;1.65;;;;;;;14.29;27.01;95844.31;4893207;29;20079;-79
2023/06/03 06:59:44;;;;;;;3.25;1.65;;;;;;;14.42;27.06;95841.72;4925466;29;20038;-79
2023/06/03 07:02:09;;;;;;;1.92;1.30;;;;;;;14.91;25.70;95840.94;4925140;29;20043;-79
2023/06/03 07:04:35;;;;;;;3.47;1.58;;;;;;;14.94;25.61;95841.41;4925015;29;20039;-79
2023/06/03 07:07:00;;;;;;;2.85;1.30;;;;;;;15.23;25.91;95842.09;4925369;29;20120;-79
2023/06/03 07:09:26;;;;;;;2.60;1.52;;;;;;;15.22;25.65;95847.66;4923953;29;20490;-79
2023/06/03 07:11:51;;;;;;;4.45;1.60;;;;;;;15.18;26.30;95847.25;4911806;29;20114;-78
2023/06/03 07:14:16;;;;;;;2.55;1.77;;;;;;;14.90;26.23;95842.81;4924483;29;20066;-79
2023/06/03 07:16:42;;;;;;;3.00;1.50;;;;;;;15.50;26.25;95846.69;4927263;29;20047;-79
2023/06/03 07:19:08;;;;;;;4.43;1.48;;;;;;;15.69;25.90;95847.78;4925008;29;20099;-79
2023/06/03 07:21:34;;;;;;;2.97;1.48;;;;;;;15.95;25.02;95843.44;4917274;29;20048;-79
2023/06/03 07:24:00;;;;;;;1.95;1.50;;;;;;;16.05;25.89;95842.22;4915979;29;20117;-79
2023/06/03 07:26:27;;;;;;;3.67;1.55;;;;;;;16.21;25.48;95855.19;4894220;29;20020;-79
2023/06/03 07:28:56;;;;;;;4.32;1.65;;;;;;;15.96;26.28;95855.84;4909253;29;20130;-78
2023/06/03 07:31:21;;;;;;;4.15;1.80;;;;;;;16.46;24.77;95851.88;4930011;29;20043;-79
2023/06/03 07:33:54;;;;;;;1.67;1.50;;;;;;;16.88;25.06;95848.03;4927484;29;20031;-78
2023/06/03 07:36:20;;;;;;;4.32;1.90;;;;;;;16.85;25.20;95848.47;4924780;29;20514;-78
2023/06/03 07:39:06;;;;;;;5.28;2.03;;;;;;;16.98;24.81;95847.59;4900450;29;20027;-79
2023/06/03 07:41:39;;;;;;;4.95;1.90;;;;;;;16.87;24.70;95852.59;4924537;29;20495;-78
2023/06/03 07:44:12;;;;;;;7.15;1.80;;;;;;;17.10;24.46;95851.25;4911086;29;20044;-79
2023/06/03 07:46:41;;;;;;;1.52;1.35;;;;;;;16.96;25.77;95858.56;4926484;29;20663;-78
2023/06/03 07:49:09;;;;;;;4.50;1.67;;;;;;;16.99;24.67;95855.44;4911774;29;20091;-78
2023/06/03 07:51:34;;;;;;;2.50;1.70;;;;;;;16.74;24.59;95860.72;4900340;29;20063;-78
2023/06/03 07:54:01;;;;;;;2.92;1.25;;;;;;;17.01;25.68;95858.75;4912566;29;20066;-79
2023/06/03 07:56:26;;;;;;;2.65;1.65;;;;;;;17.24;24.61;95860.09;4894834;29;20372;-78
2023/06/03 07:58:51;;;;;;;3.47;1.60;;;;;;;17.60;24.31;95851.63;4917656;29;20258;-79
2023/06/03 08:01:17;;;;;;;3.30;1.58;;;;;;;17.54;24.83;95856.84;4924229;29;20308;-78
2023/06/03 08:03:42;;;;;;;1.90;1.80;;;;;;;17.74;24.09;95855.88;4895863;29;20086;-78
2023/06/03 08:06:08;;;;;;;6.72;1.77;;;;;;;17.63;24.04;95857.41;4924960;29;20196;-79
2023/06/03 08:08:33;;;;;;;2.55;1.55;;;;;;;17.67;24.82;95855.94;4915112;29;20028;-79
2023/06/03 08:11:02;;;;;;;2.53;1.63;;;;;;;17.76;24.13;95861.88;4896027;29;20446;-78
2023/06/03 08:13:27;;;;;;;3.45;1.75;;;;;;;17.90;24.20;95859.94;4915846;29;20252;-78
2023/06/03 08:15:53;;;;;;;2.95;1.88;;;;;;;18.43;23.63;95851.59;4925211;29;20515;-79
2023/06/03 08:18:33;;;;;;;3.55;1.83;;;;;;;18.07;24.70;95856.69;4916400;29;20054;-79
2023/06/03 08:21:02;;;;;;;2.08;1.70;;;;;;;17.99;23.78;95863.19;4923871;29;20403;-78
2023/06/03 08:23:27;;;;;;;2.75;1.60;;;;;;;18.38;24.68;95857.66;4877444;29;20518;-79
2023/06/03 08:25:53;;;;;;;2.30;1.70;;;;;;;18.24;24.04;95856.13;4923993;29;20043;-79
2023/06/03 08:28:18;;;;;;;3.70;1.67;;;;;;;18.77;22.62;95862.06;4924223;29;20048;-79
2023/06/03 08:30:44;;;;;;;9.40;2.20;;;;;;;18.59;24.09;95849.41;4928588;29;20400;-79
2023/06/03 08:33:09;;;;;;;1.80;1.60;;;;;;;18.39;23.56;95851.22;4930461;29;20034;-79
2023/06/03 08:35:34;;;;;;;2.63;1.85;;;;;;;18.62;22.79;95854.31;4900248;29;20494;-78
2023/06/03 08:38:00;;;;;;;2.33;1.65;;;;;;;18.83;23.02;95855.75;4930750;29;20455;-79
2023/06/03 08:40:26;;;;;;;1.83;1.73;;;;;;;18.59;23.69;95849.41;4918948;29;20044;-79
2023/06/03 08:42:56;;;;;;;3.75;1.80;;;;;;;18.60;23.62;95859.13;4931203;29;20019;-79
2023/06/03 08:45:22;;;;;;;5.65;2.15;;;;;;;19.06;22.58;95868.56;4936178;29;20498;-78
2023/06/03 08:48:08;;;;;;;5.53;1.90;;;;;;;19.40;22.29;95867.31;4905090;29;20035;-78
2023/06/03 08:50:34;;;;;;;3.15;1.70;;;;;;;19.57;22.02;95854.84;4931322;29;20093;-79
2023/06/03 08:53:08;;;;;;;2.55;1.58;;;;;;;19.46;22.74;95856.44;4934680;29;20043;-79
2023/06/03 08:55:34;;;;;;;3.38;1.70;;;;;;;20.06;22.27;95861.19;4931448;29;20066;-79
2023/06/03 08:58:12;;;;;;;3.33;1.65;;;;;;;20.06;21.71;95862.00;4930703;29;20414;-79
2023/06/03 09:00:37;;;;;;;;;;;;;;;20.06;22.41;95862.00;4929522;29;20032;-79
2023/06/03 09:03:03;;;;;;;4.37;1.93;;;;;;;20.23;21.31;95862.13;4937366;28;19917;-79
2023/06/03 09:05:28;;;;;;;2.28;1.70;;;;;;;20.53;21.57;95854.16;4921732;29;20051;-79
2023/06/03 09:07:54;;;;;;;6.70;1.90;;;;;;;19.85;21.82;95860.63;4902747;29;20036;-79
2023/06/03 09:10:21;;;;;;;3.83;2.00;;;;;;;20.00;21.38;95868.34;4921078;29;20481;-79
2023/06/03 09:12:46;;;;;;;3.90;1.92;;;;;;;20.15;21.35;95870.59;4930404;29;20118;-79
2023/06/03 09:15:15;;;;;;;3.67;1.58;;;;;;;20.42;21.51;95862.03;4933190;29;20102;-79
2023/06/03 09:17:44;;;;;;;1.80;1.70;;;;;;;20.25;21.20;95869.22;4928204;29;20503;-79
2023/06/03 09:20:10;;;;;;;1.98;1.83;;;;;;;20.04;22.23;95861.44;4930267;29;20039;-79
2023/06/03 09:22:36;;;;;;;3.47;1.90;;;;;;;20.05;20.97;95868.47;4918009;29;20028;-79
2023/06/03 09:25:02;;;;;;;3.70;1.70;;;;;;;20.18;21.97;95859.31;4918618;29;20039;-79
2023/06/03 09:27:28;;;;;;;3.65;2.00;;;;;;;20.35;21.02;95862.16;4918108;29;20529;-78
2023/06/03 09:29:55;;;;;;;3.67;1.60;;;;;;;20.15;21.74;95862.47;4919445;29;20019;-79
2023/06/03 09:32:21;;;;;;;2.33;1.45;;;;;;;20.14;22.44;95868.94;4910260;29;20036;-78
2023/06/03 09:34:46;;;;;;;5.18;2.00;;;;;;;20.54;21.17;95856.63;4930565;29;20051;-79
2023/06/03 09:37:12;;;;;;;2.78;1.50;;;;;;;20.38;22.19;95860.84;4937248;29;20071;-79
2023/06/03 09:39:37;;;;;;;3.13;1.90;;;;;;;20.40;21.33;95857.91;4921159;29;20027;-79
2023/06/03 09:42:03;;;;;;;3.65;2.08;;;;;;;20.58;21.38;95863.19;4916946;29;20036;-79
2023/06/03 09:44:41;;;;;;;5.10;1.88;;;;;;;20.85;21.11;95868.13;4926780;29;20103;-79
2023/06/03 09:47:08;;;;;;;3.88;2.00;;;;;;;21.28;20.05;95870.59;4922147;29;20034;-79
2023/06/03 09:49:34;;;;;;;2.95;2.00;;;;;;;21.38;20.56;95870.81;4927552;29;20482;-79
2023/06/03 09:52:00;;;;;;;3.25;1.90;;;;;;;21.12;20.90;95870.28;4916869;29;20036;-79
2023/06/03 09:54:25;;;;;;;2.15;1.73;;;;;;;21.61;19.80;95869.06;4925426;29;20043;-80
2023/06/03 09:56:51;;;;;;;6.47;2.10;;;;;;;21.92;20.66;95871.50;4926500;29;20047;-79
2023/06/03 09:59:29;;;;;;;4.05;2.00;;;;;;;22.05;19.76;95877.66;4927031;29;20039;-80
2023/06/03 10:01:55;;;;;;;3.72;2.00;;;;;;;21.96;19.91;95880.00;4926493;29;20126;-80
2023/06/03 10:04:24;;;;;;;2.40;1.80;;;;;;;22.19;18.91;95872.78;4926295;29;20039;-79
2023/06/03 10:07:09;;;;;;;3.30;1.85;;;;;;;22.17;19.68;95869.47;4915473;29;20040;-79
2023/06/03 10:09:35;;;;;;;3.63;1.88;;;;;;;22.37;19.54;95875.19;4927891;29;20040;-80
2023/06/03 10:12:00;;;;;;;6.78;2.00;;;;;;;22.32;19.02;95879.72;4924988;29;20068;-79
2023/06/03 10:14:26;;;;;;;3.45;1.92;;;;;;;22.07;19.75;95867.41;4916062;29;20526;-79
2023/06/03 10:17:07;;;;;;;2.92;2.00;;;;;;;21.83;19.74;95868.38;4925025;29;20047;-79
2023/06/03 10:19:43;;;;;;;2.53;1.90;;;;;;;22.34;20.18;95864.88;4925312;29;20501;-79
2023/06/03 10:22:09;;;;;;;3.33;2.08;;;;;;;22.40;18.61;95869.28;4925779;29;20051;-79
2023/06/03 10:24:37;;;;;;;3.15;1.70;;;;;;;22.59;19.11;95860.91;4925749;29;20039;-79
2023/06/03 10:27:03;;;;;;;4.88;2.03;;;;;;;22.85;19.25;95860.44;4896730;29;20495;-79
2023/06/03 10:29:31;;;;;;;5.70;1.92;;;;;;;22.05;18.79;95856.00;4928636;29;20075;-80
2023/06/03 10:31:57;;;;;;;4.20;2.03;;;;;;;22.17;19.50;95850.50;4900252;29;20462;-80
2023/06/03 10:34:23;;;;;;;3.05;1.90;;;;;;;21.91;19.82;95850.91;4915769;29;20119;-79
2023/06/03 10:36:52;;;;;;;4.20;1.98;;;;;;;22.33;19.11;95865.91;4910867;29;20050;-80
2023/06/03 10:39:18;;;;;;;5.65;2.10;;;;;;;22.80;18.27;95858.47;4926296;29;20655;-79
2023/06/03 10:41:44;;;;;;;5.07;2.00;;;;;;;22.65;18.85;95848.25;4909869;29;20107;-79
2023/06/03 10:44:09;;;;;;;4.30;2.00;;;;;;;22.81;18.91;95852.00;4916565;29;20483;-79
2023/06/03 10:46:37;;;;;;;4.90;2.00;;;;;;;22.79;17.99;95854.94;4927196;29;20039;-75
2023/06/03 10:49:04;;;;;;;4.90;2.08;;;;;;;22.57;18.95;95856.81;4916423;29;20027;-77
2023/06/03 10:51:55;;;;;;;5.85;2.30;;;;;;;22.90;19.13;95863.19;4933613;29;20103;-77
2023/06/03 10:54:40;;;;;;;8.88;2.08;;;;;;;23.17;19.12;95855.16;4930217;29;20102;-77
2023/06/03 10:57:06;;;;;;;4.50;2.10;;;;;;;23.07;19.04;95854.19;4932445;29;20137;-78
2023/06/03 10:59:42;;;;;;;5.53;1.88;;;;;;;23.71;18.49;95851.88;4930287;29;20028;-77
2023/06/03 11:02:07;;;;;;;7.03;1.98;;;;;;;23.64;17.85;95852.94;4928349;29;20031;-77
2023/06/03 11:04:36;;;;;;;3.35;2.10;;;;;;;23.81;18.41;95854.75;4933908;29;20420;-77
2023/06/03 11:07:02;;;;;;;3.05;2.00;;;;;;;23.92;17.84;95859.19;4916568;29;20486;-77
2023/06/03 11:09:37;;;;;;;8.77;2.30;;;;;;;24.07;17.85;95849.53;4933874;29;20050;-77
2023/06/03 11:12:15;;;;;;;5.28;2.00;;;;;;;24.12;17.84;95846.84;4929374;29;20047;-78
2023/06/03 11:14:42;;;;;;;4.35;2.17;;;;;;;23.37;18.52;95852.91;4918114;29;20184;-78
2023/06/03 11:17:12;;;;;;;2.90;1.80;;;;;;;24.21;17.87;95858.06;4928163;29;20058;-78
2023/06/03 11:19:44;;;;;;;3.70;1.83;;;;;;;24.59;16.95;95858.06;4915798;29;20240;-77
2023/06/03 11:22:13;;;;;;;3.47;1.90;;;;;;;24.44;17.97;95858.78;4929183;29;20106;-78
2023/06/03 11:24:38;;;;;;;4.45;1.98;;;;;;;24.26;17.68;95857.25;4929278;29;20068;-77
2023/06/03 11:27:10;;;;;;;3.83;2.00;;;;;;;24.55;17.10;95852.34;4929835;29;20036;-77
2023/06/03 11:32:37;;;;;;;3.35;1.98;;;;;;;24.76;16.77;95852.44;4922761;29;20102;-78
2023/06/03 11:35:03;;;;;;;2.50;2.00;;;;;;;24.93;17.25;95852.28;4924527;29;20095;-79
2023/06/03 11:37:54;;;;;;;2.95;1.90;;;;;;;24.90;17.25;95852.81;4924509;29;20031;-78
2023/06/03 11:40:20;;;;;;;3.60;2.10;;;;;;;25.31;16.36;95856.75;4921831;29;20484;-79